Terminal Aerodrome Forecast
Issued by NWS Mt. Holly, NJ

Home | Current Version | Previous Version | Text Only | Print | Product List | Glossary On
Versions: 1 2 3 4 5 6 7 8 9 10 11 12 13 14 15 16 17 18 19 20 21 22
401
FTUS41 KPHI 161756
TAFACY
TAF
KACY 161756Z 1618/1718 23005KT P6SM BKN035
     FM162200 19006KT P6SM BKN035 OVC100
     FM171000 19004KT 6SM BR OVC025
     FM171400 15005KT 3SM -SHRA BR OVC009=

USA.gov is the U.S. government's official web portal to all federal, state and local government web resources and services.